Songa Opal — V7RO5 — position and weather

sailwx.info

Track history (hours):
 
Tides and Currents Weather Stations Pressure Air Temp Water Temp Dewpoint Dewpoint Depression Visibility Wind Speed Wind Dir Waves Ship Positions

Songa Opal

Last reported at 2015-Aug-04 02:33 UTC. Time now 2015-Aug-04 03:25 UTC.
Position N 49°17' W 122°54'.

Length 144 m; draft 7.9 m.

Type: Ship. MMSI: 538003550.

Date/timePositionNaut miles runAvg speedWind from/ knotsBaromVisibWave heightAir tempDewpointWater temp
2015-Aug-04 02:33N 49°17' W 122°54'0 0.0
2015-Aug-04 01:33N 49°17' W 122°54'0 0.0
2015-Aug-04 00:33N 49°17' W 122°54'0 0.0
2015-Aug-03 23:33N 49°17' W 122°54'0 0.0
2015-Aug-03 22:33N 49°17' W 122°54'0 0.0
2015-Aug-03 21:33N 49°17' W 122°54'0 0.0
2015-Aug-03 20:33N 49°17' W 122°54'0 0.0
2015-Aug-03 19:30N 49°17' W 122°54'0 0.0
2015-Aug-03 18:33N 49°17' W 122°54'0 0.0
2015-Aug-03 17:33N 49°17' W 122°54'0 0.0
2015-Aug-03 16:33N 49°17' W 122°54'0 0.0
2015-Aug-03 15:33N 49°17' W 122°54'2 2.0
2015-Aug-03 14:32N 49°18' W 122°57'0 0.1
2015-Aug-03 13:32N 49°18' W 122°57'0 0.1
2015-Aug-03 12:32N 49°18' W 122°57'0 0.1
2015-Aug-03 11:32N 49°18' W 122°57'0 0.1
2015-Aug-03 10:32N 49°18' W 122°57'0 0.0
2015-Aug-03 09:33N 49°18' W 122°57'0 0.0
2015-Aug-03 08:33N 49°18' W 122°57'0 0.0
2015-Aug-03 07:33N 49°18' W 122°57'0 0.0
2015-Aug-03 06:33N 49°18' W 122°57'0 0.1
2015-Aug-03 05:33N 49°18' W 122°57'0 0.1
2015-Aug-03 04:33N 49°18' W 122°57'7 6.5
2015-Aug-03 03:33N 49°18' W 123°07'7 6.5
2015-Aug-03 02:33N 49°18' W 123°17'6 6.1
2015-Aug-03 01:33N 49°12' W 123°19'7 6.8
2015-Aug-03 00:33N 49°05' W 123°21'1110.7
2015-Aug-02 23:33N 48°58' W 123°09'1413.9
2015-Aug-02 22:33N 48°48' W 122°53'1312.7
2015-Aug-02 21:33N 48°39' W 122°40'8 8.4
2015-Aug-02 20:33N 48°32' W 122°34'1 0.1
2015-Aug-01 18:33N 48°31' W 122°35'0 0.2
2015-Aug-01 16:30N 48°31' W 122°35'0 0.0
2015-Aug-01 15:33N 48°31' W 122°35'0 0.0
2015-Aug-01 14:33N 48°31' W 122°35'0 0.0
2015-Aug-01 13:21N 48°31' W 122°35'0 0.1
2015-Aug-01 12:33N 48°31' W 122°35'0 0.1
2015-Aug-01 11:24N 48°31' W 122°35'0 0.1
2015-Aug-01 10:21N 48°31' W 122°35'0 0.1
2015-Aug-01 08:03N 48°31' W 122°35'0 0.0
2015-Aug-01 07:33N 48°31' W 122°35'0 0.0
2015-Aug-01 05:21N 48°31' W 122°35'0 0.0
2015-Aug-01 04:27N 48°31' W 122°35'0 0.0
2015-Aug-01 03:33N 48°31' W 122°35'0 0.1
2015-Aug-01 02:30N 48°31' W 122°35'0 0.0
2015-Aug-01 01:33N 48°31' W 122°35'0 0.0
2015-Aug-01 00:27N 48°31' W 122°35'0 0.0
2015-Jul-31 23:27N 48°31' W 122°35'0 0.1
2015-Jul-31 22:21N 48°31' W 122°35'0 0.0
2015-Jul-31 18:33N 48°31' W 122°35'0 0.0
2015-Jul-31 17:33N 48°31' W 122°35'1 0.7
2015-Jul-31 16:33N 48°31' W 122°36'6 5.7
2015-Jul-31 15:33N 48°29' W 122°44'1010.5
2015-Jul-31 14:33N 48°21' W 122°54'1312.8
2015-Jul-31 13:32N 48°15' W 123°11'1111.5
2015-Jul-31 12:33N 48°11' W 123°27'1010.1
2015-Jul-31 11:33N 48°13' W 123°42'1110.7
2015-Jul-31 10:33N 48°14' W 123°58'1110.9
2015-Jul-31 09:33N 48°19' W 124°12'1110.9
2015-Jul-31 08:33N 48°23' W 124°27'1110.9
2015-Jul-31 07:33N 48°28' W 124°42'1312.7
2015-Jul-31 06:33N 48°29' W 125°01'1212.4
2015-Jul-31 05:33N 48°25' W 125°19'1313.0
2015-Jul-31 04:34N 48°19' W 125°36'1313.4
2015-Jul-31 03:33N 48°12' W 125°54'1313.0
2015-Jul-31 02:34N 48°06' W 126°11'1110.9
2015-Jul-31 01:34N 47°55' W 126°10'1212.0
2015-Jul-31 00:33N 47°43' W 126°07'2 1.5
2015-Jul-30 23:34N 47°42' W 126°07'3 3.0
2015-Jul-30 22:33N 47°45' W 126°07'3 3.4
2015-Jul-30 21:34N 47°42' W 126°05'6 5.6
2015-Jul-30 20:34N 47°47' W 126°08'1212.1
2015-Jul-30 19:33N 47°35' W 126°04'1212.1
2015-Jul-30 18:33N 47°23' W 126°00'1211.8
2015-Jul-30 17:34N 47°12' W 125°57'1212.2
2015-Jul-30 16:34N 46°60' W 125°54'1212.2
2015-Jul-30 15:33N 46°48' W 125°47'1111.4
2015-Jul-30 14:34N 46°42' W 125°34'3 2.7
2015-Jul-30 13:28N 46°40' W 125°31'2 1.9
2015-Jul-30 12:31N 46°41' W 125°33'2 2.0
2015-Jul-30 11:28N 46°42' W 125°35'2 2.1
2015-Jul-30 10:31N 46°43' W 125°38'2 2.0
2015-Jul-30 09:28N 46°45' W 125°40'2 1.9
2015-Jul-30 08:31N 46°46' W 125°42'2 2.0
2015-Jul-30 07:31N 46°47' W 125°44'2 2.0
2015-Jul-30 06:31N 46°49' W 125°46'2 2.1
2015-Jul-30 05:33N 46°50' W 125°48'2 2.1
2015-Jul-30 04:33N 46°52' W 125°50'2 2.0
2015-Jul-30 03:33N 46°54' W 125°51'0 0.5
2015-Jul-30 02:33N 46°54' W 125°52'1010.5
2015-Jul-30 01:33N 46°46' W 125°41'1111.5
2015-Jul-30 00:33N 46°40' W 125°27'1211.7
2015-Jul-29 23:33N 46°33' W 125°13'1211.6
2015-Jul-29 22:33N 46°27' W 124°59'1111.2
2015-Jul-29 21:33N 46°21' W 124°46'1111.3
2015-Jul-29 20:33N 46°16' W 124°31'1212.0
2015-Jul-29 19:33N 46°13' W 124°14'1110.9
2015-Jul-29 18:34N 46°14' W 123°58'10 9.9
2015-Jul-29 17:33N 46°14' W 123°44'1212.3
2015-Jul-29 16:34N 46°15' W 123°26'1110.8
2015-Jul-29 15:33N 46°11' W 123°12'1313.1
2015-Jul-29 14:34N 46°05' W 122°55'1413.6
2015-Jul-29 13:33N 45°53' W 122°48'1414.0
2015-Jul-29 12:33N 45°39' W 122°46'3 2.8
2015-Jul-29 11:27N 45°36' W 122°47'0 0.0
2015-Jul-29 10:30N 45°36' W 122°47'0 0.0
2015-Jul-29 09:33N 45°36' W 122°47'0 0.0
2015-Jul-29 08:33N 45°36' W 122°47'0 0.0
2015-Jul-29 07:33N 45°36' W 122°47'0 0.0
2015-Jul-29 06:30N 45°36' W 122°47'0 0.0
2015-Jul-29 05:30N 45°36' W 122°47'0 0.0
2015-Jul-29 04:33N 45°36' W 122°47'0 0.0
2015-Jul-29 03:27N 45°36' W 122°47'0 0.0
2015-Jul-29 02:27N 45°36' W 122°47'0 0.0
2015-Jul-29 01:33N 45°36' W 122°47'0 0.0
2015-Jul-29 00:33N 45°36' W 122°47'0 0.0
2015-Jul-28 23:33N 45°36' W 122°47'0 0.0
2015-Jul-28 22:30N 45°36' W 122°47'0 0.0
2015-Jul-28 21:33N 45°36' W 122°47'0 0.0
2015-Jul-28 20:24N 45°36' W 122°47'0 0.0
2015-Jul-28 19:30N 45°36' W 122°47'0 0.0
2015-Jul-28 18:33N 45°36' W 122°47'0 0.0
2015-Jul-28 17:24N 45°36' W 122°47'0 0.0
2015-Jul-28 16:33N 45°36' W 122°47'0 0.0
2015-Jul-28 15:15N 45°36' W 122°47'0 0.0
2015-Jul-28 14:33N 45°36' W 122°47'0 0.0
2015-Jul-28 13:33N 45°36' W 122°47'0 0.0
2015-Jul-28 12:33N 45°36' W 122°47'0 0.0
2015-Jul-28 11:27N 45°36' W 122°47'0 0.0
2015-Jul-28 10:33N 45°36' W 122°47'0 0.0
2015-Jul-28 09:27N 45°36' W 122°47'0 0.0
2015-Jul-28 08:33N 45°36' W 122°47'0 0.0
2015-Jul-28 07:33N 45°36' W 122°47'0 0.0
2015-Jul-28 06:33N 45°36' W 122°47'0 0.1
2015-Jul-28 05:33N 45°36' W 122°47'5 5.0
2015-Jul-28 04:33N 45°41' W 122°47'1010.0
2015-Jul-28 03:33N 45°51' W 122°47'10 9.7
2015-Jul-28 02:33N 45°60' W 122°51'9 8.7
2015-Jul-28 01:33N 46°07' W 122°59'1010.2
2015-Jul-28 00:33N 46°11' W 123°12'9 9.3
2015-Jul-27 23:34N 46°11' W 123°26'8 7.9
2015-Jul-27 22:33N 46°15' W 123°35'1110.6
2015-Jul-27 21:34N 46°12' W 123°50'10 9.9
2015-Jul-27 20:33N 46°15' W 124°03'1110.7
2015-Jul-27 19:33N 46°09' W 124°16'0 0.4
2015-Jul-27 18:33N 46°10' W 124°15'9 9.1
2015-Jul-27 17:33N 46°14' W 124°27'1312.6
2015-Jul-27 16:33N 46°21' W 124°42'1313.0
2015-Jul-27 15:33N 46°32' W 124°52'1111.0
2015-Jul-27 14:33N 46°42' W 124°59'1312.5
2015-Jul-27 13:33N 46°53' W 125°08'9411.7
2015-Jul-27 05:33N 48°26' W 125°05'1010.4
2015-Jul-27 04:33N 48°31' W 124°51'1211.9
2015-Jul-27 03:33N 48°28' W 124°34'1212.3
2015-Jul-27 02:33N 48°23' W 124°17'1312.4
2015-Jul-27 01:31N 48°18' W 123°59'1212.1
2015-Jul-27 00:33N 48°16' W 123°42'1010.4
2015-Jul-26 23:33N 48°20' W 123°27'1010.4
2015-Jul-26 22:33N 48°24' W 123°13'1312.6
2015-Jul-26 21:33N 48°37' W 123°14'1110.6
2015-Jul-26 20:33N 48°46' W 123°05'10 9.8
2015-Jul-26 19:33N 48°55' W 123°10'1312.9
2015-Jul-26 18:33N 49°04' W 123°24'1313.0
2015-Jul-26 17:33N 49°16' W 123°20'9 8.6
2015-Jul-26 16:33N 49°18' W 123°07'5 5.4
2015-Jul-26 15:33N 49°18' W 122°59'3 3.0
2015-Jul-26 14:31N 49°17' W 122°54'0 0.0
2015-Jul-26 13:31N 49°17' W 122°54'0 0.0
2015-Jul-26 12:31N 49°17' W 122°54'0 0.0
2015-Jul-26 11:31N 49°17' W 122°54'0 0.0
2015-Jul-26 10:31N 49°17' W 122°54'0 0.0
2015-Jul-26 09:31N 49°17' W 122°54'0 0.0
2015-Jul-26 08:31N 49°17' W 122°54'0 0.0
2015-Jul-26 07:31N 49°17' W 122°54'0 0.0
2015-Jul-26 06:31N 49°17' W 122°54'0 0.0
2015-Jul-26 05:31N 49°17' W 122°54'0 0.0
2015-Jul-26 04:31N 49°17' W 122°54'0 0.0
2015-Jul-26 03:31N 49°17' W 122°54'0 0.0
2015-Jul-26 02:31N 49°17' W 122°54'0 0.0
2015-Jul-26 01:28N 49°17' W 122°54'0 0.0
2015-Jul-26 00:31N 49°17' W 122°54'0 0.0
2015-Jul-25 23:31N 49°17' W 122°54'0 0.0
2015-Jul-25 22:31N 49°17' W 122°54'0 0.0
2015-Jul-25 21:31N 49°17' W 122°54'0 0.0
2015-Jul-25 20:31N 49°17' W 122°54'0 0.0
2015-Jul-25 19:31N 49°17' W 122°54'0 0.0
2015-Jul-25 18:31N 49°17' W 122°54'0 0.0
2015-Jul-25 17:31N 49°17' W 122°54'0 0.0
2015-Jul-25 16:31N 49°17' W 122°54'0 0.0
2015-Jul-25 15:31N 49°17' W 122°54'0 0.0
2015-Jul-25 14:31N 49°17' W 122°54'0 0.0
2015-Jul-25 13:31N 49°17' W 122°54'2 2.1
2015-Jul-25 12:33N 49°18' W 122°57'0 0.0
2015-Jul-25 11:33N 49°18' W 122°57'0 0.0
2015-Jul-25 10:33N 49°18' W 122°57'0 0.0
2015-Jul-25 09:33N 49°18' W 122°57'0 0.0
2015-Jul-25 08:33N 49°18' W 122°57'0 0.0
2015-Jul-25 07:33N 49°18' W 122°57'0 0.0
2015-Jul-25 06:33N 49°18' W 122°57'0 0.0
2015-Jul-25 05:33N 49°18' W 122°57'0 0.0
2015-Jul-25 04:33N 49°18' W 122°57'0 0.0
2015-Jul-25 03:33N 49°18' W 122°57'0 0.0
2015-Jul-25 02:33N 49°18' W 122°57'  
Track history (hours):
 
Tides and Currents Weather Stations Pressure Air Temp Water Temp Dewpoint Dewpoint Depression Visibility Wind Speed Wind Dir Waves Ship Positions

Songa Opal

Last reported at 2015-Aug-04 02:33 UTC. Time now 2015-Aug-04 03:25 UTC.
Position N 49°17' W 122°54'.

Length 144 m; draft 7.9 m.

Type: Ship. MMSI: 538003550.

Date/timePositionNaut miles runAvg speedWind from/ knotsBaromVisibWave heightAir tempDewpointWater temp
2015-Aug-04 02:33N 49°17' W 122°54'0 0.0
2015-Aug-04 01:33N 49°17' W 122°54'0 0.0
2015-Aug-04 00:33N 49°17' W 122°54'0 0.0
2015-Aug-03 23:33N 49°17' W 122°54'0 0.0
2015-Aug-03 22:33N 49°17' W 122°54'0 0.0
2015-Aug-03 21:33N 49°17' W 122°54'0 0.0
2015-Aug-03 20:33N 49°17' W 122°54'0 0.0
2015-Aug-03 19:30N 49°17' W 122°54'0 0.0
2015-Aug-03 18:33N 49°17' W 122°54'0 0.0
2015-Aug-03 17:33N 49°17' W 122°54'0 0.0
2015-Aug-03 16:33N 49°17' W 122°54'0 0.0
2015-Aug-03 15:33N 49°17' W 122°54'2 2.0
2015-Aug-03 14:32N 49°18' W 122°57'0 0.1
2015-Aug-03 13:32N 49°18' W 122°57'0 0.1
2015-Aug-03 12:32N 49°18' W 122°57'0 0.1
2015-Aug-03 11:32N 49°18' W 122°57'0 0.1
2015-Aug-03 10:32N 49°18' W 122°57'0 0.0
2015-Aug-03 09:33N 49°18' W 122°57'0 0.0
2015-Aug-03 08:33N 49°18' W 122°57'0 0.0
2015-Aug-03 07:33N 49°18' W 122°57'0 0.0
2015-Aug-03 06:33N 49°18' W 122°57'0 0.1
2015-Aug-03 05:33N 49°18' W 122°57'0 0.1
2015-Aug-03 04:33N 49°18' W 122°57'7 6.5
2015-Aug-03 03:33N 49°18' W 123°07'7 6.5
2015-Aug-03 02:33N 49°18' W 123°17'6 6.1
2015-Aug-03 01:33N 49°12' W 123°19'7 6.8
2015-Aug-03 00:33N 49°05' W 123°21'1110.7
2015-Aug-02 23:33N 48°58' W 123°09'1413.9
2015-Aug-02 22:33N 48°48' W 122°53'1312.7
2015-Aug-02 21:33N 48°39' W 122°40'8 8.4
2015-Aug-02 20:33N 48°32' W 122°34'1 0.1
2015-Aug-01 18:33N 48°31' W 122°35'0 0.2
2015-Aug-01 16:30N 48°31' W 122°35'0 0.0
2015-Aug-01 15:33N 48°31' W 122°35'0 0.0
2015-Aug-01 14:33N 48°31' W 122°35'0 0.0
2015-Aug-01 13:21N 48°31' W 122°35'0 0.1
2015-Aug-01 12:33N 48°31' W 122°35'0 0.1
2015-Aug-01 11:24N 48°31' W 122°35'0 0.1
2015-Aug-01 10:21N 48°31' W 122°35'0 0.1
2015-Aug-01 08:03N 48°31' W 122°35'0 0.0
2015-Aug-01 07:33N 48°31' W 122°35'0 0.0
2015-Aug-01 05:21N 48°31' W 122°35'0 0.0
2015-Aug-01 04:27N 48°31' W 122°35'0 0.0
2015-Aug-01 03:33N 48°31' W 122°35'0 0.1
2015-Aug-01 02:30N 48°31' W 122°35'0 0.0
2015-Aug-01 01:33N 48°31' W 122°35'0 0.0
2015-Aug-01 00:27N 48°31' W 122°35'0 0.0
2015-Jul-31 23:27N 48°31' W 122°35'0 0.1
2015-Jul-31 22:21N 48°31' W 122°35'0 0.0
2015-Jul-31 18:33N 48°31' W 122°35'0 0.0
2015-Jul-31 17:33N 48°31' W 122°35'1 0.7
2015-Jul-31 16:33N 48°31' W 122°36'6 5.7
2015-Jul-31 15:33N 48°29' W 122°44'1010.5
2015-Jul-31 14:33N 48°21' W 122°54'1312.8
2015-Jul-31 13:32N 48°15' W 123°11'1111.5
2015-Jul-31 12:33N 48°11' W 123°27'1010.1
2015-Jul-31 11:33N 48°13' W 123°42'1110.7
2015-Jul-31 10:33N 48°14' W 123°58'1110.9
2015-Jul-31 09:33N 48°19' W 124°12'1110.9
2015-Jul-31 08:33N 48°23' W 124°27'1110.9
2015-Jul-31 07:33N 48°28' W 124°42'1312.7
2015-Jul-31 06:33N 48°29' W 125°01'1212.4
2015-Jul-31 05:33N 48°25' W 125°19'1313.0
2015-Jul-31 04:34N 48°19' W 125°36'1313.4
2015-Jul-31 03:33N 48°12' W 125°54'1313.0
2015-Jul-31 02:34N 48°06' W 126°11'1110.9
2015-Jul-31 01:34N 47°55' W 126°10'1212.0
2015-Jul-31 00:33N 47°43' W 126°07'2 1.5
2015-Jul-30 23:34N 47°42' W 126°07'3 3.0
2015-Jul-30 22:33N 47°45' W 126°07'3 3.4
2015-Jul-30 21:34N 47°42' W 126°05'6 5.6
2015-Jul-30 20:34N 47°47' W 126°08'1212.1
2015-Jul-30 19:33N 47°35' W 126°04'1212.1
2015-Jul-30 18:33N 47°23' W 126°00'1211.8
2015-Jul-30 17:34N 47°12' W 125°57'1212.2
2015-Jul-30 16:34N 46°60' W 125°54'1212.2
2015-Jul-30 15:33N 46°48' W 125°47'1111.4
2015-Jul-30 14:34N 46°42' W 125°34'3 2.7
2015-Jul-30 13:28N 46°40' W 125°31'2 1.9
2015-Jul-30 12:31N 46°41' W 125°33'2 2.0
2015-Jul-30 11:28N 46°42' W 125°35'2 2.1
2015-Jul-30 10:31N 46°43' W 125°38'2 2.0
2015-Jul-30 09:28N 46°45' W 125°40'2 1.9
2015-Jul-30 08:31N 46°46' W 125°42'2 2.0
2015-Jul-30 07:31N 46°47' W 125°44'2 2.0
2015-Jul-30 06:31N 46°49' W 125°46'2 2.1
2015-Jul-30 05:33N 46°50' W 125°48'2 2.1
2015-Jul-30 04:33N 46°52' W 125°50'2 2.0
2015-Jul-30 03:33N 46°54' W 125°51'0 0.5
2015-Jul-30 02:33N 46°54' W 125°52'1010.5
2015-Jul-30 01:33N 46°46' W 125°41'1111.5
2015-Jul-30 00:33N 46°40' W 125°27'1211.7
2015-Jul-29 23:33N 46°33' W 125°13'1211.6
2015-Jul-29 22:33N 46°27' W 124°59'1111.2
2015-Jul-29 21:33N 46°21' W 124°46'1111.3
2015-Jul-29 20:33N 46°16' W 124°31'1212.0
2015-Jul-29 19:33N 46°13' W 124°14'1110.9
2015-Jul-29 18:34N 46°14' W 123°58'10 9.9
2015-Jul-29 17:33N 46°14' W 123°44'1212.3
2015-Jul-29 16:34N 46°15' W 123°26'1110.8
2015-Jul-29 15:33N 46°11' W 123°12'1313.1
2015-Jul-29 14:34N 46°05' W 122°55'1413.6
2015-Jul-29 13:33N 45°53' W 122°48'1414.0
2015-Jul-29 12:33N 45°39' W 122°46'3 2.8
2015-Jul-29 11:27N 45°36' W 122°47'0 0.0
2015-Jul-29 10:30N 45°36' W 122°47'0 0.0
2015-Jul-29 09:33N 45°36' W 122°47'0 0.0
2015-Jul-29 08:33N 45°36' W 122°47'0 0.0
2015-Jul-29 07:33N 45°36' W 122°47'0 0.0
2015-Jul-29 06:30N 45°36' W 122°47'0 0.0
2015-Jul-29 05:30N 45°36' W 122°47'0 0.0
2015-Jul-29 04:33N 45°36' W 122°47'0 0.0
2015-Jul-29 03:27N 45°36' W 122°47'0 0.0
2015-Jul-29 02:27N 45°36' W 122°47'0 0.0
2015-Jul-29 01:33N 45°36' W 122°47'0 0.0
2015-Jul-29 00:33N 45°36' W 122°47'0 0.0
2015-Jul-28 23:33N 45°36' W 122°47'0 0.0
2015-Jul-28 22:30N 45°36' W 122°47'0 0.0
2015-Jul-28 21:33N 45°36' W 122°47'0 0.0
2015-Jul-28 20:24N 45°36' W 122°47'0 0.0
2015-Jul-28 19:30N 45°36' W 122°47'0 0.0
2015-Jul-28 18:33N 45°36' W 122°47'0 0.0
2015-Jul-28 17:24N 45°36' W 122°47'0 0.0
2015-Jul-28 16:33N 45°36' W 122°47'0 0.0
2015-Jul-28 15:15N 45°36' W 122°47'0 0.0
2015-Jul-28 14:33N 45°36' W 122°47'0 0.0
2015-Jul-28 13:33N 45°36' W 122°47'0 0.0
2015-Jul-28 12:33N 45°36' W 122°47'0 0.0
2015-Jul-28 11:27N 45°36' W 122°47'0 0.0
2015-Jul-28 10:33N 45°36' W 122°47'0 0.0
2015-Jul-28 09:27N 45°36' W 122°47'0 0.0
2015-Jul-28 08:33N 45°36' W 122°47'0 0.0
2015-Jul-28 07:33N 45°36' W 122°47'0 0.0
2015-Jul-28 06:33N 45°36' W 122°47'0 0.1
2015-Jul-28 05:33N 45°36' W 122°47'5 5.0
2015-Jul-28 04:33N 45°41' W 122°47'1010.0
2015-Jul-28 03:33N 45°51' W 122°47'10 9.7
2015-Jul-28 02:33N 45°60' W 122°51'9 8.7
2015-Jul-28 01:33N 46°07' W 122°59'1010.2
2015-Jul-28 00:33N 46°11' W 123°12'9 9.3
2015-Jul-27 23:34N 46°11' W 123°26'8 7.9
2015-Jul-27 22:33N 46°15' W 123°35'1110.6
2015-Jul-27 21:34N 46°12' W 123°50'10 9.9
2015-Jul-27 20:33N 46°15' W 124°03'1110.7
2015-Jul-27 19:33N 46°09' W 124°16'0 0.4
2015-Jul-27 18:33N 46°10' W 124°15'9 9.1
2015-Jul-27 17:33N 46°14' W 124°27'1312.6
2015-Jul-27 16:33N 46°21' W 124°42'1313.0
2015-Jul-27 15:33N 46°32' W 124°52'1111.0
2015-Jul-27 14:33N 46°42' W 124°59'1312.5
2015-Jul-27 13:33N 46°53' W 125°08'9411.7
2015-Jul-27 05:33N 48°26' W 125°05'1010.4
2015-Jul-27 04:33N 48°31' W 124°51'1211.9
2015-Jul-27 03:33N 48°28' W 124°34'1212.3
2015-Jul-27 02:33N 48°23' W 124°17'1312.4
2015-Jul-27 01:31N 48°18' W 123°59'1212.1
2015-Jul-27 00:33N 48°16' W 123°42'1010.4
2015-Jul-26 23:33N 48°20' W 123°27'1010.4
2015-Jul-26 22:33N 48°24' W 123°13'1312.6
2015-Jul-26 21:33N 48°37' W 123°14'1110.6
2015-Jul-26 20:33N 48°46' W 123°05'10 9.8
2015-Jul-26 19:33N 48°55' W 123°10'1312.9
2015-Jul-26 18:33N 49°04' W 123°24'1313.0
2015-Jul-26 17:33N 49°16' W 123°20'9 8.6
2015-Jul-26 16:33N 49°18' W 123°07'5 5.4
2015-Jul-26 15:33N 49°18' W 122°59'3 3.0
2015-Jul-26 14:31N 49°17' W 122°54'0 0.0
2015-Jul-26 13:31N 49°17' W 122°54'0 0.0
2015-Jul-26 12:31N 49°17' W 122°54'0 0.0
2015-Jul-26 11:31N 49°17' W 122°54'0 0.0
2015-Jul-26 10:31N 49°17' W 122°54'0 0.0
2015-Jul-26 09:31N 49°17' W 122°54'0 0.0
2015-Jul-26 08:31N 49°17' W 122°54'0 0.0
2015-Jul-26 07:31N 49°17' W 122°54'0 0.0
2015-Jul-26 06:31N 49°17' W 122°54'0 0.0
2015-Jul-26 05:31N 49°17' W 122°54'0 0.0
2015-Jul-26 04:31N 49°17' W 122°54'0 0.0
2015-Jul-26 03:31N 49°17' W 122°54'0 0.0
2015-Jul-26 02:31N 49°17' W 122°54'0 0.0
2015-Jul-26 01:28N 49°17' W 122°54'0 0.0
2015-Jul-26 00:31N 49°17' W 122°54'0 0.0
2015-Jul-25 23:31N 49°17' W 122°54'0 0.0
2015-Jul-25 22:31N 49°17' W 122°54'0 0.0
2015-Jul-25 21:31N 49°17' W 122°54'0 0.0
2015-Jul-25 20:31N 49°17' W 122°54'0 0.0
2015-Jul-25 19:31N 49°17' W 122°54'0 0.0
2015-Jul-25 18:31N 49°17' W 122°54'0 0.0
2015-Jul-25 17:31N 49°17' W 122°54'0 0.0
2015-Jul-25 16:31N 49°17' W 122°54'0 0.0
2015-Jul-25 15:31N 49°17' W 122°54'0 0.0
2015-Jul-25 14:31N 49°17' W 122°54'0 0.0
2015-Jul-25 13:31N 49°17' W 122°54'2 2.1
2015-Jul-25 12:33N 49°18' W 122°57'0 0.0
2015-Jul-25 11:33N 49°18' W 122°57'0 0.0
2015-Jul-25 10:33N 49°18' W 122°57'0 0.0
2015-Jul-25 09:33N 49°18' W 122°57'0 0.0
2015-Jul-25 08:33N 49°18' W 122°57'0 0.0
2015-Jul-25 07:33N 49°18' W 122°57'0 0.0
2015-Jul-25 06:33N 49°18' W 122°57'0 0.0
2015-Jul-25 05:33N 49°18' W 122°57'0 0.0
2015-Jul-25 04:33N 49°18' W 122°57'0 0.0
2015-Jul-25 03:33N 49°18' W 122°57'0 0.0
2015-Jul-25 02:33N 49°18' W 122°57'  

Dump ship's entire track history